createdAt,value
2019-06-20T00:00:48.869Z,934.3
2019-06-20T00:01:49.998Z,934.4
2019-06-20T00:02:51.129Z,934.5
2019-06-20T00:03:52.296Z,934.5
2019-06-20T00:04:53.418Z,934.5
2019-06-20T00:05:54.544Z,934.5
2019-06-20T00:06:55.670Z,934.4
2019-06-20T00:07:56.806Z,934.5
2019-06-20T00:08:57.330Z,934.5
2019-06-20T00:09:58.459Z,934.5
2019-06-20T00:10:59.588Z,934.5
2019-06-20T00:12:00.712Z,934.5
2019-06-20T00:13:01.842Z,934.5
2019-06-20T00:14:02.992Z,934.6
2019-06-20T00:15:04.122Z,934.6
2019-06-20T00:16:05.253Z,934.6
2019-06-20T00:17:06.379Z,934.6
2019-06-20T00:18:07.512Z,934.6
2019-06-20T00:19:08.024Z,934.5
2019-06-20T00:20:09.159Z,934.7
2019-06-20T00:21:10.298Z,934.7
2019-06-20T00:22:11.424Z,934.6
2019-06-20T00:23:12.562Z,934.6
2019-06-20T00:24:13.724Z,934.7
2019-06-20T00:25:14.869Z,934.6
2019-06-20T00:26:15.977Z,934.6
2019-06-20T00:27:17.108Z,934.7
2019-06-20T00:28:18.257Z,934.7
2019-06-20T00:29:18.748Z,934.7
2019-06-20T00:30:19.883Z,934.7
2019-06-20T00:31:21.014Z,934.8
2019-06-20T00:32:22.138Z,934.8
2019-06-20T00:33:23.270Z,933.2
2019-06-20T00:34:24.428Z,934.7
2019-06-20T00:35:25.562Z,934.7
2019-06-20T00:36:26.678Z,934.7
2019-06-20T00:37:27.816Z,934.7
2019-06-20T00:38:28.954Z,934.7
2019-06-20T00:39:29.660Z,934.6
2019-06-20T00:40:30.794Z,934.1
2019-06-20T00:41:31.927Z,934.7
2019-06-20T00:42:33.049Z,934.6
2019-06-20T00:43:34.176Z,934.5
2019-06-20T00:44:35.329Z,934.5
2019-06-20T00:45:36.456Z,933.9
2019-06-20T00:46:37.590Z,934.6
2019-06-20T00:47:38.717Z,934.5
2019-06-20T00:48:39.844Z,934.5
2019-06-20T00:49:40.361Z,934.7
2019-06-20T00:50:41.490Z,934.6
2019-06-20T00:51:42.622Z,934.7
2019-06-20T00:52:43.748Z,934.6
2019-06-20T00:53:44.872Z,934.7
2019-06-20T00:54:46.026Z,934.7
2019-06-20T00:55:47.161Z,934.6
2019-06-20T00:56:48.282Z,934.6
2019-06-20T00:57:49.414Z,934.6
2019-06-20T00:58:50.545Z,934.6
2019-06-20T00:59:51.063Z,934.5
2019-06-20T01:00:52.221Z,934.6
2019-06-20T01:01:53.334Z,934.5
2019-06-20T01:02:54.462Z,934.5
2019-06-20T01:03:55.582Z,934.5
2019-06-20T01:04:56.746Z,934.5
2019-06-20T01:05:57.873Z,934.4
2019-06-20T01:06:58.996Z,934.4
2019-06-20T01:08:00.178Z,934.4
2019-06-20T01:09:01.268Z,934.4
2019-06-20T01:10:01.928Z,934.4
2019-06-20T01:11:03.044Z,934.3
2019-06-20T01:12:04.165Z,934.2
2019-06-20T01:13:05.302Z,934.3
2019-06-20T01:14:06.440Z,934.2
2019-06-20T01:15:07.581Z,934.3
2019-06-20T01:16:08.709Z,934.2
2019-06-20T01:17:09.875Z,934.1
2019-06-20T01:18:10.967Z,934.1
2019-06-20T01:19:12.092Z,934.1
2019-06-20T01:20:12.619Z,934.2
2019-06-20T01:21:13.744Z,934.2
2019-06-20T01:22:14.865Z,934.2
2019-06-20T01:23:16.002Z,934.1
2019-06-20T01:24:17.121Z,934.2
2019-06-20T01:25:18.279Z,934.1
2019-06-20T01:26:19.404Z,934.1
2019-06-20T01:27:20.539Z,934.2
2019-06-20T01:28:21.676Z,934.1
2019-06-20T01:29:22.796Z,934
2019-06-20T01:30:23.312Z,934
2019-06-20T01:31:24.442Z,934
2019-06-20T01:32:25.565Z,934
2019-06-20T01:33:26.691Z,933.9
2019-06-20T01:34:27.825Z,933.9
2019-06-20T01:35:28.978Z,933.9
2019-06-20T01:36:30.097Z,933.9
2019-06-20T01:37:31.229Z,933.9
2019-06-20T01:38:32.358Z,933.8
2019-06-20T01:39:33.488Z,933.8
2019-06-20T01:40:34.055Z,933.8
2019-06-20T01:41:35.176Z,933.8
2019-06-20T01:42:36.308Z,933.8
2019-06-20T01:43:49.851Z,933.8
2019-06-20T01:44:38.369Z,933.8
2019-06-20T01:45:39.523Z,933.9
2019-06-20T01:46:40.660Z,933.6
2019-06-20T01:47:41.779Z,933.6
2019-06-20T01:48:42.911Z,933.7
2019-06-20T01:49:44.042Z,933.7
2019-06-20T01:50:44.560Z,933.8
2019-06-20T01:51:45.688Z,933.7
2019-06-20T01:52:46.817Z,933.7
2019-06-20T01:53:47.937Z,933.7
2019-06-20T01:54:49.063Z,933.6
2019-06-20T01:55:50.223Z,933.6
2019-06-20T01:56:51.363Z,933.5
2019-06-20T01:57:52.480Z,933.5
2019-06-20T01:58:53.607Z,933.5
2019-06-20T01:59:54.741Z,933.5
2019-06-20T02:00:55.253Z,933.4
2019-06-20T02:01:56.380Z,933.4
2019-06-20T02:02:57.513Z,933.3
2019-06-20T02:03:58.641Z,933.3
2019-06-20T02:04:59.765Z,933.3
2019-06-20T02:06:00.930Z,933.3
2019-06-20T02:07:02.061Z,933.2
2019-06-20T02:08:03.192Z,933.2
2019-06-20T02:09:04.321Z,933.1
2019-06-20T02:10:05.460Z,933.2
2019-06-20T02:11:05.972Z,933.1
2019-06-20T02:12:07.099Z,933.2
2019-06-20T02:13:08.237Z,933.1
2019-06-20T02:14:09.357Z,933.1
2019-06-20T02:15:10.483Z,933.1
2019-06-20T02:16:11.627Z,933.1
2019-06-20T02:17:12.769Z,933
2019-06-20T02:18:13.889Z,933.1
2019-06-20T02:19:15.020Z,933
2019-06-20T02:20:16.154Z,933
2019-06-20T02:21:16.736Z,933
2019-06-20T02:22:17.827Z,933.1
2019-06-20T02:23:18.960Z,933
2019-06-20T02:24:20.083Z,933
2019-06-20T02:25:21.210Z,933
2019-06-20T02:26:22.366Z,933
2019-06-20T02:27:23.500Z,933
2019-06-20T02:28:24.627Z,933
2019-06-20T02:29:25.756Z,932.9
2019-06-20T02:30:26.886Z,932.9
2019-06-20T02:31:27.389Z,932.9
2019-06-20T02:32:28.525Z,932.9
2019-06-20T02:33:29.655Z,932.9
2019-06-20T02:34:30.779Z,932.9
2019-06-20T02:35:31.915Z,932.9
2019-06-20T02:36:33.070Z,932.9
2019-06-20T02:37:34.195Z,933
2019-06-20T02:38:35.321Z,932.9
2019-06-20T02:39:36.449Z,932.9
2019-06-20T02:40:37.579Z,933
2019-06-20T02:41:38.091Z,933
2019-06-20T02:42:39.237Z,933
2019-06-20T02:43:40.349Z,933
2019-06-20T02:44:41.483Z,933
2019-06-20T02:45:42.624Z,933
2019-06-20T02:46:43.762Z,932.9
2019-06-20T02:47:44.895Z,932.9
2019-06-20T02:48:46.018Z,933
2019-06-20T02:49:47.149Z,933
2019-06-20T02:50:48.275Z,932.1
2019-06-20T02:51:48.790Z,932.9
2019-06-20T02:52:49.916Z,932.8
2019-06-20T02:53:51.051Z,932.8
2019-06-20T02:54:52.179Z,932.8
2019-06-20T02:55:53.309Z,932.9
2019-06-20T02:56:54.456Z,933
2019-06-20T02:57:55.591Z,932.8
2019-06-20T02:58:56.718Z,932.8
2019-06-20T02:59:57.846Z,932.8
2019-06-20T03:00:58.971Z,932.8
2019-06-20T03:01:59.489Z,932.8
2019-06-20T03:03:00.627Z,932.9
2019-06-20T03:04:01.755Z,932.9
2019-06-20T03:05:02.881Z,932.9
2019-06-20T03:06:04.018Z,932.9
2019-06-20T03:07:05.167Z,932.9
2019-06-20T03:08:06.301Z,932.7
2019-06-20T03:09:07.436Z,932.8
2019-06-20T03:10:08.561Z,932.9
2019-06-20T03:11:09.688Z,932.9
2019-06-20T03:12:10.193Z,932.9
2019-06-20T03:13:11.325Z,932.9
2019-06-20T03:14:12.510Z,932.9
2019-06-20T03:15:13.652Z,932.9
2019-06-20T03:16:14.781Z,933
2019-06-20T03:17:15.948Z,932.9
2019-06-20T03:18:17.069Z,932.9
2019-06-20T03:19:18.192Z,932.9
2019-06-20T03:20:19.321Z,932.9
2019-06-20T03:21:20.445Z,932.9
2019-06-20T03:22:20.971Z,932.9
2019-06-20T03:23:22.097Z,932.9
2019-06-20T03:24:23.219Z,932.8
2019-06-20T03:25:24.413Z,932.3
2019-06-20T03:26:25.523Z,932.9
2019-06-20T03:27:26.675Z,932.9
2019-06-20T03:28:27.802Z,932.8
2019-06-20T03:29:28.929Z,932.9
2019-06-20T03:30:30.063Z,932.8
2019-06-20T03:31:31.214Z,932.8
2019-06-20T03:32:31.717Z,932.8
2019-06-20T03:33:32.843Z,932.9
2019-06-20T03:34:33.974Z,932.9
2019-06-20T03:35:35.112Z,932.9
2019-06-20T03:36:36.229Z,932.9
2019-06-20T03:37:37.382Z,932.9
2019-06-20T03:38:38.513Z,932.8
2019-06-20T03:39:39.634Z,932.9
2019-06-20T03:40:40.771Z,932.9
2019-06-20T03:41:41.894Z,932.8
2019-06-20T03:42:42.424Z,932.3
2019-06-20T03:43:43.551Z,933
2019-06-20T03:44:58.309Z,933
2019-06-20T03:45:45.135Z,933
2019-06-20T03:46:46.271Z,932.9
2019-06-20T03:47:47.419Z,932.9
2019-06-20T03:48:48.559Z,933
2019-06-20T03:49:49.673Z,933
2019-06-20T03:50:50.822Z,932.9
2019-06-20T03:51:51.939Z,933
2019-06-20T03:52:52.446Z,933
2019-06-20T03:53:53.582Z,933
2019-06-20T03:54:54.707Z,933
2019-06-20T03:55:55.831Z,933
2019-06-20T03:56:56.960Z,933
2019-06-20T03:57:58.116Z,932.9
2019-06-20T03:58:59.244Z,932.9
2019-06-20T04:00:00.379Z,933
2019-06-20T04:01:01.502Z,933.1
2019-06-20T04:02:02.636Z,933.1
2019-06-20T04:03:03.193Z,933.1
2019-06-20T04:04:04.291Z,933.2
2019-06-20T04:05:05.425Z,933.1
2019-06-20T04:06:06.554Z,933.2
2019-06-20T04:07:07.679Z,933
2019-06-20T04:08:08.832Z,933.1
2019-06-20T04:09:09.958Z,933.2
2019-06-20T04:10:11.093Z,933.2
2019-06-20T04:11:12.209Z,933.2
2019-06-20T04:12:13.345Z,933.3
2019-06-20T04:13:14.023Z,933.3
2019-06-20T04:14:15.153Z,933.3
2019-06-20T04:15:19.270Z,933.2
2019-06-20T04:16:17.708Z,933.4
2019-06-20T04:17:18.884Z,933.5
2019-06-20T04:18:20.007Z,933.3
2019-06-20T04:19:21.134Z,933.3
2019-06-20T04:20:22.265Z,933.4
2019-06-20T04:21:23.398Z,933.3
2019-06-20T04:22:24.522Z,933.4
2019-06-20T04:23:25.049Z,933.5
2019-06-20T04:24:27.955Z,933.4
2019-06-20T04:25:27.167Z,933.6
2019-06-20T04:26:28.265Z,933.6
2019-06-20T04:27:29.393Z,933.6
2019-06-20T04:28:30.546Z,933.7
2019-06-20T04:29:31.668Z,933.7
2019-06-20T04:30:32.798Z,933.7
2019-06-20T04:31:33.928Z,933.7
2019-06-20T04:32:35.065Z,933.8
2019-06-20T04:33:35.580Z,933.7
2019-06-20T04:34:36.715Z,933.8
2019-06-20T04:35:37.837Z,933.8
2019-06-20T04:36:38.970Z,933.5
2019-06-20T04:37:40.101Z,933.7
2019-06-20T04:38:41.251Z,933.6
2019-06-20T04:39:42.380Z,933.7
2019-06-20T04:40:43.505Z,933.8
2019-06-20T04:41:44.635Z,932.7
2019-06-20T04:42:45.763Z,933.8
2019-06-20T04:43:46.275Z,933.9
2019-06-20T04:44:47.404Z,933.8
2019-06-20T04:45:48.541Z,933.7
2019-06-20T04:46:49.666Z,933.9
2019-06-20T04:47:50.789Z,933.9
2019-06-20T04:48:51.949Z,933.9
2019-06-20T04:49:53.069Z,933.8
2019-06-20T04:50:54.203Z,934
2019-06-20T04:51:55.323Z,934
2019-06-20T04:52:56.456Z,933.9
2019-06-20T04:53:56.982Z,933.9
2019-06-20T04:54:58.099Z,933.9
2019-06-20T04:55:59.234Z,933.9
2019-06-20T04:57:00.356Z,933.9
2019-06-20T04:58:01.489Z,933.9
2019-06-20T04:59:02.649Z,933.9
2019-06-20T05:00:03.777Z,933.9
2019-06-20T05:01:04.906Z,934
2019-06-20T05:02:06.044Z,934
2019-06-20T05:03:07.164Z,934
2019-06-20T05:04:07.493Z,934.1
2019-06-20T05:05:08.605Z,934
2019-06-20T05:06:09.739Z,934.1
2019-06-20T05:07:10.862Z,934.1
2019-06-20T05:08:11.998Z,934
2019-06-20T05:09:13.156Z,934.1
2019-06-20T05:10:14.272Z,934.1
2019-06-20T05:11:15.498Z,934.1
2019-06-20T05:12:16.596Z,933.7
2019-06-20T05:13:17.722Z,933.8
2019-06-20T05:14:18.257Z,934
2019-06-20T05:15:19.378Z,934.2
2019-06-20T05:16:20.514Z,933.8
2019-06-20T05:17:24.414Z,933.9
2019-06-20T05:18:22.524Z,934.3
2019-06-20T05:19:23.666Z,934.3
2019-06-20T05:20:24.794Z,934.3
2019-06-20T05:21:25.936Z,934.2
2019-06-20T05:22:27.045Z,934.2
2019-06-20T05:23:28.178Z,934.3
2019-06-20T05:24:28.958Z,934.2
2019-06-20T05:25:30.092Z,934.2
2019-06-20T05:26:31.222Z,934.2
2019-06-20T05:27:32.363Z,934
2019-06-20T05:28:33.541Z,934
2019-06-20T05:29:34.679Z,934.3
2019-06-20T05:30:35.812Z,934.3
2019-06-20T05:31:36.951Z,934.3
2019-06-20T05:32:38.070Z,934.3
2019-06-20T05:33:39.192Z,934.2
2019-06-20T05:34:39.714Z,934.3
2019-06-20T05:35:40.848Z,934.2
2019-06-20T05:36:41.977Z,934.2
2019-06-20T05:37:43.096Z,934.3
2019-06-20T05:38:44.238Z,934.3
2019-06-20T05:39:45.399Z,934.2
2019-06-20T05:40:46.544Z,934.3
2019-06-20T05:41:47.752Z,934.3
2019-06-20T05:42:48.886Z,934.3
2019-06-20T05:43:50.010Z,934.3
2019-06-20T05:44:50.527Z,934.3
2019-06-20T05:46:05.440Z,934.3
2019-06-20T05:46:52.146Z,934.3
2019-06-20T05:47:53.277Z,934.2
2019-06-20T05:48:54.409Z,934.3
2019-06-20T05:49:55.558Z,934.2
2019-06-20T05:50:56.685Z,934.3
2019-06-20T05:51:57.834Z,933
2019-06-20T05:52:58.965Z,934.3
2019-06-20T05:54:00.094Z,934.3
2019-06-20T05:55:00.614Z,934.2
2019-06-20T05:56:01.754Z,934.4
2019-06-20T05:57:04.377Z,934.3
2019-06-20T05:58:03.686Z,934.2
2019-06-20T05:59:04.844Z,934.2
2019-06-20T06:00:05.969Z,934.2
2019-06-20T06:01:07.100Z,934.3
2019-06-20T06:02:08.231Z,934.3
2019-06-20T06:03:09.382Z,934.4
2019-06-20T06:04:10.506Z,934.3
2019-06-20T06:05:10.967Z,934.4
2019-06-20T06:06:12.508Z,934.3
2019-06-20T06:07:14.193Z,934.2
2019-06-20T06:08:13.373Z,934.3
2019-06-20T06:09:14.493Z,934.4
2019-06-20T06:10:15.645Z,934.4
2019-06-20T06:11:16.772Z,934.3
2019-06-20T06:12:17.907Z,934.3
2019-06-20T06:13:19.047Z,934.3
2019-06-20T06:14:20.168Z,934.4
2019-06-20T06:15:20.708Z,934.5
2019-06-20T06:16:25.997Z,934.3
2019-06-20T06:17:23.303Z,934.5
2019-06-20T06:18:24.436Z,934.4
2019-06-20T06:19:25.564Z,934.4
2019-06-20T06:20:26.706Z,934.5
2019-06-20T06:21:27.841Z,934.4
2019-06-20T06:22:28.969Z,934.5
2019-06-20T06:23:30.136Z,934.4
2019-06-20T06:24:31.247Z,934.4
2019-06-20T06:25:31.926Z,934.5
2019-06-20T06:26:33.062Z,934.5
2019-06-20T06:27:34.202Z,934.3
2019-06-20T06:28:35.325Z,934.4
2019-06-20T06:29:36.449Z,934.5
2019-06-20T06:30:37.593Z,934.5
2019-06-20T06:31:38.724Z,934.4
2019-06-20T06:32:40.659Z,934.5
2019-06-20T06:33:40.831Z,934.5
2019-06-20T06:34:41.957Z,934.5
2019-06-20T06:35:42.482Z,934.5
2019-06-20T06:36:43.614Z,934.5
2019-06-20T06:37:44.734Z,934.5
2019-06-20T06:38:45.867Z,934.5
2019-06-20T06:39:46.991Z,934.6
2019-06-20T06:40:48.140Z,934.6
2019-06-20T06:41:49.287Z,934.6
2019-06-20T06:42:50.441Z,934.5
2019-06-20T06:43:51.558Z,934.7
2019-06-20T06:44:52.700Z,934.6
2019-06-20T06:45:53.221Z,934.6
2019-06-20T06:46:59.198Z,934.6
2019-06-20T06:47:55.480Z,934.6
2019-06-20T06:48:56.643Z,934.6
2019-06-20T06:49:57.778Z,934.6
2019-06-20T06:50:58.927Z,934.6
2019-06-20T06:52:00.056Z,934.5
2019-06-20T06:53:01.188Z,934.7
2019-06-20T06:54:02.376Z,934.6
2019-06-20T06:55:03.511Z,934.6
2019-06-20T06:56:04.018Z,934.6
2019-06-20T06:57:05.147Z,934.6
2019-06-20T06:58:06.272Z,934.6
2019-06-20T06:59:07.400Z,934.7
2019-06-20T07:00:08.536Z,934.6
2019-06-20T07:01:10.337Z,934.7
2019-06-20T07:02:10.509Z,934.7
2019-06-20T07:03:11.641Z,934.7
2019-06-20T07:04:12.762Z,934.7
2019-06-20T07:05:13.896Z,934.7
2019-06-20T07:06:14.412Z,934.6
2019-06-20T07:07:15.546Z,934.7
2019-06-20T07:08:16.690Z,933.3
2019-06-20T07:09:17.807Z,934.6
2019-06-20T07:10:18.932Z,934.6
2019-06-20T07:11:20.087Z,934.5
2019-06-20T07:12:21.227Z,934.6
2019-06-20T07:13:22.348Z,934.7
2019-06-20T07:14:23.474Z,934.7
2019-06-20T07:15:25.113Z,934.7
2019-06-20T07:16:25.586Z,934.7
2019-06-20T07:17:26.714Z,934.7
2019-06-20T07:18:27.844Z,934.7
2019-06-20T07:19:28.979Z,934.6
2019-06-20T07:20:30.100Z,934.6
2019-06-20T07:21:31.260Z,934.6
2019-06-20T07:22:32.386Z,934.7
2019-06-20T07:23:33.516Z,934.6
2019-06-20T07:24:34.653Z,934.7
2019-06-20T07:25:35.770Z,934.7
2019-06-20T07:26:36.299Z,934.7
2019-06-20T07:27:37.417Z,934.7
2019-06-20T07:28:38.551Z,934.7
2019-06-20T07:29:39.676Z,934.6
2019-06-20T07:30:40.804Z,934.6
2019-06-20T07:31:45.102Z,934.6
2019-06-20T07:32:43.205Z,934.6
2019-06-20T07:33:44.336Z,934.7
2019-06-20T07:34:45.463Z,934.6
2019-06-20T07:35:46.601Z,934.7
2019-06-20T07:36:47.120Z,934.7
2019-06-20T07:37:48.244Z,934.7
2019-06-20T07:38:49.376Z,934.7
2019-06-20T07:39:50.508Z,934.7
2019-06-20T07:40:51.635Z,934.7
2019-06-20T07:41:52.788Z,934.6
2019-06-20T07:42:53.914Z,934.6
2019-06-20T07:43:55.043Z,934.5
2019-06-20T07:44:56.172Z,934.5
2019-06-20T07:46:02.345Z,934.5
2019-06-20T07:46:58.338Z,934.6
2019-06-20T07:47:59.469Z,934.5
2019-06-20T07:49:00.597Z,934.5
2019-06-20T07:50:01.735Z,934.5
2019-06-20T07:51:02.864Z,934.5
2019-06-20T07:52:04.020Z,934.5
2019-06-20T07:53:05.137Z,934.4
2019-06-20T07:54:06.265Z,934.4
2019-06-20T07:55:07.403Z,934.4
2019-06-20T07:56:09.462Z,934.5
2019-06-20T07:57:09.029Z,934.4
2019-06-20T07:58:10.161Z,934.5
2019-06-20T07:59:11.285Z,934.5
2019-06-20T08:00:12.420Z,934.4
2019-06-20T08:01:13.545Z,934.4
2019-06-20T08:02:14.697Z,934.4
2019-06-20T08:03:15.824Z,934.5
2019-06-20T08:04:16.951Z,934.5
2019-06-20T08:05:18.079Z,934.4
2019-06-20T08:06:19.209Z,934.3
2019-06-20T08:07:19.738Z,934.5
2019-06-20T08:08:20.867Z,934.4
2019-06-20T08:09:22.232Z,934.4
2019-06-20T08:10:23.354Z,934.5
2019-06-20T08:11:24.478Z,934.5
2019-06-20T08:12:25.638Z,933.3
2019-06-20T08:13:26.788Z,934.6
2019-06-20T08:14:27.904Z,934.5
2019-06-20T08:15:29.020Z,934.5
2019-06-20T08:16:30.153Z,934.5
2019-06-20T08:17:35.049Z,934.5
2019-06-20T08:18:31.723Z,934.5
2019-06-20T08:19:32.836Z,934.5
2019-06-20T08:20:33.976Z,934.5
2019-06-20T08:21:35.097Z,934.5
2019-06-20T08:22:36.241Z,934.5
2019-06-20T08:23:37.375Z,934.5
2019-06-20T08:24:38.512Z,934.5
2019-06-20T08:25:39.657Z,934.5
2019-06-20T08:26:40.804Z,934.5
2019-06-20T08:27:41.910Z,934.5
2019-06-20T08:28:43.031Z,934.5
2019-06-20T08:29:44.157Z,934.5
2019-06-20T08:30:45.283Z,934.4
2019-06-20T08:31:46.409Z,934.4
2019-06-20T08:32:47.570Z,934.5
2019-06-20T08:33:48.701Z,934.4
2019-06-20T08:34:49.813Z,934.4
2019-06-20T08:35:50.973Z,934.4
2019-06-20T08:36:52.108Z,934.3
2019-06-20T08:37:52.623Z,934.3
2019-06-20T08:38:53.755Z,934.4
2019-06-20T08:39:56.739Z,934.4
2019-06-20T08:40:56.958Z,934.5
2019-06-20T08:41:58.846Z,934.4
2019-06-20T08:42:59.857Z,934.4
2019-06-20T08:43:59.801Z,934.4
2019-06-20T08:44:59.909Z,934.3
2019-06-20T08:46:01.705Z,934.5
2019-06-20T08:47:02.326Z,934.4
2019-06-20T08:48:02.926Z,934.4
2019-06-20T08:49:04.029Z,934.5
2019-06-20T08:50:05.994Z,934.4
2019-06-20T08:51:06.550Z,934.4
2019-06-20T08:52:07.720Z,934.5
2019-06-20T08:53:08.867Z,934.5
2019-06-20T08:54:09.998Z,934.5
2019-06-20T08:55:11.136Z,934.5
2019-06-20T08:56:12.264Z,934.5
2019-06-20T08:57:13.395Z,934.4
2019-06-20T08:58:13.954Z,934.3
2019-06-20T08:59:23.789Z,934.3
2019-06-20T09:00:16.467Z,934.5
2019-06-20T09:01:17.599Z,934.4
2019-06-20T09:02:21.709Z,934.4
2019-06-20T09:03:19.793Z,934.4
2019-06-20T09:04:22.311Z,934.5
2019-06-20T09:05:21.848Z,934.4
2019-06-20T09:06:22.974Z,934.4
2019-06-20T09:07:24.102Z,934.3
2019-06-20T09:08:24.561Z,934.3
2019-06-20T09:09:25.687Z,934.2
2019-06-20T09:10:26.822Z,934.2
2019-06-20T09:11:27.978Z,934.2
2019-06-20T09:12:29.088Z,934.2
2019-06-20T09:13:30.240Z,934.2
2019-06-20T09:14:31.372Z,934.3
2019-06-20T09:15:32.497Z,934.3
2019-06-20T09:16:33.627Z,934.2
2019-06-20T09:17:34.757Z,934.2
2019-06-20T09:18:35.293Z,934.2
2019-06-20T09:19:36.418Z,934.3
2019-06-20T09:20:37.554Z,934.3
2019-06-20T09:21:38.680Z,934.2
2019-06-20T09:22:39.815Z,934.3
2019-06-20T09:23:40.975Z,934.2
2019-06-20T09:24:42.093Z,934.3
2019-06-20T09:25:43.222Z,934.3
2019-06-20T09:26:44.357Z,934.3
2019-06-20T09:27:45.484Z,934
2019-06-20T09:28:46.004Z,934.2
2019-06-20T09:29:47.131Z,934.3
2019-06-20T09:30:48.335Z,934.2
2019-06-20T09:31:49.459Z,934.3
2019-06-20T09:32:52.184Z,934.3
2019-06-20T09:33:52.569Z,934.4
2019-06-20T09:34:53.010Z,934.3
2019-06-20T09:35:53.872Z,934
2019-06-20T09:36:55.169Z,934.2
2019-06-20T09:37:55.327Z,934.3
2019-06-20T09:38:57.754Z,934.3
2019-06-20T09:39:57.241Z,934.3
2019-06-20T09:40:59.182Z,934.3
2019-06-20T09:41:59.342Z,934.3
2019-06-20T09:43:00.479Z,934.4
2019-06-20T09:44:03.064Z,934.3
2019-06-20T09:45:02.916Z,934.3
2019-06-20T09:46:03.073Z,934.4
2019-06-20T09:47:04.463Z,934.3
2019-06-20T09:48:05.605Z,934.4
2019-06-20T09:49:06.137Z,934.3
2019-06-20T09:50:07.259Z,934.4
2019-06-20T09:51:08.389Z,934.4
2019-06-20T09:52:09.519Z,934.2
2019-06-20T09:53:10.641Z,934.2
2019-06-20T09:54:11.795Z,934.3
2019-06-20T09:55:12.925Z,934.3
2019-06-20T09:56:14.059Z,934.2
2019-06-20T09:57:15.179Z,934.3
2019-06-20T09:58:16.309Z,934.4
2019-06-20T09:59:27.082Z,934.5
2019-06-20T10:00:17.533Z,934.5
2019-06-20T10:01:18.789Z,934.5
2019-06-20T10:02:19.905Z,934.5
2019-06-20T10:03:21.046Z,934.4
2019-06-20T10:04:22.202Z,934.3
2019-06-20T10:05:23.333Z,934.2
2019-06-20T10:06:24.461Z,934.4
2019-06-20T10:07:25.594Z,934.3
2019-06-20T10:08:26.723Z,934.5
2019-06-20T10:09:27.262Z,934.4
2019-06-20T10:10:28.389Z,934.5
2019-06-20T10:11:29.517Z,934.4
2019-06-20T10:12:30.680Z,933.8
2019-06-20T10:13:32.727Z,934.4
2019-06-20T10:14:32.944Z,934.4
2019-06-20T10:15:34.074Z,934.4
2019-06-20T10:16:45.201Z,934.4
2019-06-20T10:17:36.618Z,934
2019-06-20T10:18:37.747Z,934.4
2019-06-20T10:19:38.464Z,934.5
2019-06-20T10:20:39.585Z,934.4
2019-06-20T10:21:40.718Z,934.4
2019-06-20T10:22:41.844Z,934.4
2019-06-20T10:23:42.979Z,934.5
2019-06-20T10:24:45.743Z,934.4
2019-06-20T10:25:46.015Z,934.4
2019-06-20T10:26:47.852Z,934.4
2019-06-20T10:27:48.249Z,934.4
2019-06-20T10:28:49.170Z,934.5
2019-06-20T10:29:48.951Z,934.4
2019-06-20T10:30:51.078Z,934.4
2019-06-20T10:31:51.250Z,934.3
2019-06-20T10:32:53.165Z,934.3
2019-06-20T10:33:53.363Z,934.3
2019-06-20T10:34:54.519Z,934.4
2019-06-20T10:35:57.133Z,934.4
2019-06-20T10:36:57.063Z,934.2
2019-06-20T10:37:57.391Z,934.3
2019-06-20T10:38:58.498Z,934.3
2019-06-20T10:39:59.096Z,934.3
2019-06-20T10:41:00.237Z,934.3
2019-06-20T10:42:01.352Z,934.1
2019-06-20T10:43:02.477Z,934.3
2019-06-20T10:44:03.601Z,934.3
2019-06-20T10:45:04.747Z,934.3
2019-06-20T10:46:05.879Z,934.2
2019-06-20T10:47:07.008Z,934.2
2019-06-20T10:48:08.151Z,934.3
2019-06-20T10:49:09.271Z,934.3
2019-06-20T10:50:09.716Z,934.1
2019-06-20T10:51:10.847Z,933.1
2019-06-20T10:52:11.996Z,934.3
2019-06-20T10:53:13.108Z,934.2
2019-06-20T10:54:14.241Z,934.1
2019-06-20T10:55:15.393Z,934.1
2019-06-20T10:56:16.527Z,934.3
2019-06-20T10:57:17.654Z,934.3
2019-06-20T10:58:18.781Z,934.3
2019-06-20T10:59:19.904Z,934.2
2019-06-20T11:00:30.009Z,934.3
2019-06-20T11:01:22.333Z,934.3
2019-06-20T11:02:23.462Z,934.2
2019-06-20T11:03:24.589Z,934.2
2019-06-20T11:04:25.722Z,934.2
2019-06-20T11:05:26.871Z,934.1
2019-06-20T11:06:27.997Z,934.1
2019-06-20T11:07:29.130Z,934.2
2019-06-20T11:08:30.251Z,934.1
2019-06-20T11:09:31.378Z,934.2
2019-06-20T11:10:31.890Z,934.2
2019-06-20T11:11:33.019Z,934.1
2019-06-20T11:12:42.763Z,934.2
2019-06-20T11:13:34.782Z,934.1
2019-06-20T11:14:35.905Z,934
2019-06-20T11:15:37.479Z,934.2
2019-06-20T11:16:38.441Z,934.1
2019-06-20T11:17:40.256Z,934.2
2019-06-20T11:18:41.333Z,934
2019-06-20T11:19:41.611Z,933.1
2019-06-20T11:20:42.727Z,934.1
2019-06-20T11:21:43.210Z,933.9
2019-06-20T11:22:45.355Z,934
2019-06-20T11:23:45.530Z,934.1
2019-06-20T11:24:47.421Z,934
2019-06-20T11:25:48.331Z,934
2019-06-20T11:26:48.479Z,934
2019-06-20T11:27:49.608Z,934
2019-06-20T11:28:52.343Z,934
2019-06-20T11:29:51.491Z,934
2019-06-20T11:30:57.955Z,934
2019-06-20T11:31:52.960Z,934
2019-06-20T11:32:54.081Z,934
2019-06-20T11:33:55.219Z,933.9
2019-06-20T11:34:56.361Z,933.9
2019-06-20T11:35:57.511Z,933.9
2019-06-20T11:36:58.635Z,933.8
2019-06-20T11:37:59.764Z,933.9
2019-06-20T11:39:00.890Z,933.8
2019-06-20T11:40:02.022Z,933.8
2019-06-20T11:41:03.003Z,933.8
2019-06-20T11:42:04.122Z,933.8
2019-06-20T11:43:05.248Z,933.7
2019-06-20T11:44:06.378Z,933.7
2019-06-20T11:45:07.506Z,933.8
2019-06-20T11:46:08.660Z,933.7
2019-06-20T11:47:09.788Z,933.6
2019-06-20T11:48:10.915Z,933.6
2019-06-20T11:49:12.047Z,933.7
2019-06-20T11:50:13.164Z,933.6
2019-06-20T11:51:13.712Z,933.5
2019-06-20T11:52:18.037Z,933.6
2019-06-20T11:53:16.109Z,933.5
2019-06-20T11:54:17.222Z,933.6
2019-06-20T11:55:18.356Z,933
2019-06-20T11:56:19.517Z,933.3
2019-06-20T11:57:20.638Z,933.6
2019-06-20T11:58:23.546Z,933.4
2019-06-20T11:59:22.680Z,933.3
2019-06-20T12:00:23.806Z,933.3
2019-06-20T12:01:32.438Z,933.4
2019-06-20T12:02:24.983Z,933.4
2019-06-20T12:03:26.131Z,933.4
2019-06-20T12:04:27.243Z,933.5
2019-06-20T12:05:28.370Z,933.4
2019-06-20T12:06:29.562Z,933.4
2019-06-20T12:07:30.690Z,933.5
2019-06-20T12:08:31.818Z,933.5
2019-06-20T12:09:32.943Z,933.4
2019-06-20T12:10:34.069Z,933.4
2019-06-20T12:11:34.617Z,933.4
2019-06-20T12:12:35.740Z,933.3
2019-06-20T12:13:38.733Z,933.3
2019-06-20T12:14:39.358Z,933.4
2019-06-20T12:15:42.719Z,933.4
2019-06-20T12:16:40.812Z,933.3
2019-06-20T12:17:41.674Z,933.1
2019-06-20T12:18:41.544Z,932.9
2019-06-20T12:19:42.440Z,933.3
2019-06-20T12:20:42.910Z,933.2
2019-06-20T12:21:44.745Z,933.2
2019-06-20T12:22:45.090Z,933.2
2019-06-20T12:23:46.823Z,933.5
2019-06-20T12:24:46.960Z,933.4
2019-06-20T12:25:48.751Z,933.3
2019-06-20T12:26:48.968Z,933.4
2019-06-20T12:27:50.207Z,933.2
2019-06-20T12:28:51.361Z,933.3
2019-06-20T12:29:52.500Z,933.4
2019-06-20T12:30:53.621Z,933.5
2019-06-20T12:31:54.177Z,933.3
2019-06-20T12:32:55.301Z,933.5
2019-06-20T12:33:56.423Z,933.6
2019-06-20T12:34:57.557Z,933.6
2019-06-20T12:35:58.692Z,933.6
2019-06-20T12:36:59.838Z,933.6
2019-06-20T12:38:00.966Z,933.7
2019-06-20T12:39:02.092Z,933.7
2019-06-20T12:40:05.676Z,933.7
2019-06-20T12:41:04.747Z,933.7
2019-06-20T12:42:06.032Z,933.7
2019-06-20T12:43:07.142Z,933.9
2019-06-20T12:44:08.274Z,933.8
2019-06-20T12:45:09.408Z,933.9
2019-06-20T12:46:10.536Z,934
2019-06-20T12:47:11.678Z,934
2019-06-20T12:48:12.814Z,934
2019-06-20T12:49:13.936Z,934
2019-06-20T12:50:15.071Z,934.1
2019-06-20T12:51:16.194Z,934.1
2019-06-20T12:52:17.093Z,934.1
2019-06-20T12:53:18.211Z,934.1
2019-06-20T12:54:19.350Z,934
2019-06-20T12:55:20.474Z,933.9
2019-06-20T12:56:21.630Z,934
2019-06-20T12:57:22.764Z,934
2019-06-20T12:58:23.888Z,933.9
2019-06-20T12:59:25.024Z,934
2019-06-20T13:00:26.143Z,934.1
2019-06-20T13:01:35.798Z,934.2
2019-06-20T13:02:28.353Z,934.1
2019-06-20T13:03:29.479Z,934.5
2019-06-20T13:04:30.604Z,934.5
2019-06-20T13:05:31.735Z,934.7
2019-06-20T13:06:32.869Z,934.8
2019-06-20T13:07:34.025Z,935.1
2019-06-20T13:08:35.143Z,935.1
2019-06-20T13:09:37.480Z,935.2
2019-06-20T13:10:38.619Z,935.3
2019-06-20T13:11:39.068Z,935.2